Qashlu, Yemen
Current Conditions -  °F | °C
As of 6:50 PM on Thursday 27 Nov 2014 (Local Time) from OOSA Reporting Station
NA  
Wind Chill: 26°   Ceiling: NA
Heat Index: 27°   Visibility: 6mi
Dew Point: 19°   Wind: 0mph
Humidity: 65%   Direction: NA
Pressure: 29.94"   Gusts: NA
Location:  12.61°N, 53.86°E
Report Text: OOSA 271550Z AUTO VRB00KT 9999 26/19 Q1014
Loading
Personal Weather Stations






























Interactive Weather Map New forecast layout! Learn more

10-Day Weather Forecast

Advertisements
Track Severe Weather on mobile